Terminal Aerodrome Forecast
Issued by NWS Cleveland, OH

Home | Current Version | Previous Version | Graphics & Text | Print | Product List | Glossary On
Versions: 1 2 3 4 5 6 7 8 9 10 11 12 13 14 15 16 17
082
FTUS41 KCLE 211259 AAA
TAFTOL
TAF AMD
KTOL 211259Z 2113/2212 33005KT 1/4SM FG VV002
     FM211500 30005KT 1 1/2SM BR OVC006
      TEMPO 2115/2117 3SM BR OVC012
     FM211700 30012KT P6SM SCT012
     FM220200 34012G20KT P6SM SCT035=

USA.gov is the U.S. government's official web portal to all federal, state and local government web resources and services.